sensor_id;sensor_type;location;lat;lon;timestamp;P1;durP1;ratioP1;P2;durP2;ratioP2
63499;SDS011;49654;51.142;14.924;2024-02-15T00:02:13;13.40;;;8.20;;
63499;SDS011;49654;51.142;14.924;2024-02-15T00:04:41;11.45;;;7.72;;
63499;SDS011;49654;51.142;14.924;2024-02-15T00:07:10;10.60;;;8.05;;
63499;SDS011;49654;51.142;14.924;2024-02-15T00:09:37;12.30;;;7.95;;
63499;SDS011;49654;51.142;14.924;2024-02-15T00:12:04;12.30;;;7.85;;
63499;SDS011;49654;51.142;14.924;2024-02-15T00:14:32;9.55;;;8.05;;
63499;SDS011;49654;51.142;14.924;2024-02-15T00:16:59;9.73;;;7.63;;
63499;SDS011;49654;51.142;14.924;2024-02-15T00:19:26;10.50;;;8.55;;
63499;SDS011;49654;51.142;14.924;2024-02-15T00:21:55;11.02;;;7.80;;
63499;SDS011;49654;51.142;14.924;2024-02-15T00:24:23;11.23;;;8.13;;
63499;SDS011;49654;51.142;14.924;2024-02-15T00:26:50;11.15;;;8.30;;
63499;SDS011;49654;51.142;14.924;2024-02-15T00:29:19;11.70;;;8.23;;
63499;SDS011;49654;51.142;14.924;2024-02-15T00:31:46;11.90;;;8.70;;
63499;SDS011;49654;51.142;14.924;2024-02-15T00:34:14;11.40;;;8.30;;
63499;SDS011;49654;51.142;14.924;2024-02-15T00:36:42;11.30;;;9.23;;
63499;SDS011;49654;51.142;14.924;2024-02-15T00:39:08;9.95;;;7.93;;
63499;SDS011;49654;51.142;14.924;2024-02-15T00:41:38;9.35;;;7.88;;
63499;SDS011;49654;51.142;14.924;2024-02-15T00:44:07;12.05;;;8.07;;
63499;SDS011;49654;51.142;14.924;2024-02-15T00:46:35;11.05;;;8.02;;
63499;SDS011;49654;51.142;14.924;2024-02-15T00:49:02;10.73;;;8.73;;
63499;SDS011;49654;51.142;14.924;2024-02-15T00:51:31;11.02;;;8.55;;
63499;SDS011;49654;51.142;14.924;2024-02-15T00:53:59;11.43;;;8.43;;
63499;SDS011;49654;51.142;14.924;2024-02-15T00:56:26;9.10;;;7.75;;
63499;SDS011;49654;51.142;14.924;2024-02-15T00:58:56;10.77;;;8.65;;
63499;SDS011;49654;51.142;14.924;2024-02-15T01:01:23;11.73;;;8.73;;
63499;SDS011;49654;51.142;14.924;2024-02-15T01:03:50;10.50;;;8.55;;
63499;SDS011;49654;51.142;14.924;2024-02-15T01:06:17;11.48;;;8.60;;
63499;SDS011;49654;51.142;14.924;2024-02-15T01:08:44;11.35;;;8.85;;
63499;SDS011;49654;51.142;14.924;2024-02-15T01:11:11;10.30;;;8.48;;
63499;SDS011;49654;51.142;14.924;2024-02-15T01:13:39;10.43;;;8.25;;
63499;SDS011;49654;51.142;14.924;2024-02-15T01:16:08;12.50;;;8.63;;
63499;SDS011;49654;51.142;14.924;2024-02-15T01:18:35;10.90;;;8.38;;
63499;SDS011;49654;51.142;14.924;2024-02-15T01:21:03;10.65;;;8.25;;
63499;SDS011;49654;51.142;14.924;2024-02-15T01:23:30;12.50;;;8.27;;
63499;SDS011;49654;51.142;14.924;2024-02-15T01:25:57;11.20;;;8.35;;
63499;SDS011;49654;51.142;14.924;2024-02-15T01:28:26;12.00;;;8.48;;
63499;SDS011;49654;51.142;14.924;2024-02-15T01:30:53;11.63;;;8.48;;
63499;SDS011;49654;51.142;14.924;2024-02-15T01:33:22;10.43;;;8.43;;
63499;SDS011;49654;51.142;14.924;2024-02-15T01:35:49;10.90;;;8.15;;
63499;SDS011;49654;51.142;14.924;2024-02-15T01:38:16;10.13;;;7.72;;
63499;SDS011;49654;51.142;14.924;2024-02-15T01:40:43;12.65;;;8.15;;
63499;SDS011;49654;51.142;14.924;2024-02-15T01:43:10;9.25;;;8.15;;
63499;SDS011;49654;51.142;14.924;2024-02-15T01:45:36;11.65;;;8.50;;
63499;SDS011;49654;51.142;14.924;2024-02-15T01:48:04;10.32;;;8.45;;
63499;SDS011;49654;51.142;14.924;2024-02-15T01:50:33;11.68;;;8.27;;
63499;SDS011;49654;51.142;14.924;2024-02-15T01:53:01;10.32;;;8.23;;
63499;SDS011;49654;51.142;14.924;2024-02-15T01:55:33;11.10;;;8.15;;
63499;SDS011;49654;51.142;14.924;2024-02-15T01:58:01;11.13;;;8.73;;
63499;SDS011;49654;51.142;14.924;2024-02-15T02:00:28;9.10;;;7.90;;
63499;SDS011;49654;51.142;14.924;2024-02-15T02:02:57;12.82;;;9.10;;
63499;SDS011;49654;51.142;14.924;2024-02-15T02:05:28;10.00;;;7.85;;
63499;SDS011;49654;51.142;14.924;2024-02-15T02:07:57;10.35;;;8.60;;
63499;SDS011;49654;51.142;14.924;2024-02-15T02:10:27;10.85;;;8.10;;
63499;SDS011;49654;51.142;14.924;2024-02-15T02:12:58;9.25;;;7.88;;
63499;SDS011;49654;51.142;14.924;2024-02-15T02:15:26;9.73;;;7.90;;
63499;SDS011;49654;51.142;14.924;2024-02-15T02:17:54;9.80;;;7.50;;
63499;SDS011;49654;51.142;14.924;2024-02-15T02:20:21;11.73;;;8.60;;
63499;SDS011;49654;51.142;14.924;2024-02-15T02:22:49;10.70;;;7.93;;
63499;SDS011;49654;51.142;14.924;2024-02-15T02:25:22;11.02;;;8.43;;
63499;SDS011;49654;51.142;14.924;2024-02-15T02:27:51;11.75;;;8.18;;
63499;SDS011;49654;51.142;14.924;2024-02-15T02:30:18;10.98;;;8.57;;
63499;SDS011;49654;51.142;14.924;2024-02-15T02:32:48;11.25;;;8.55;;
63499;SDS011;49654;51.142;14.924;2024-02-15T02:35:15;12.80;;;8.77;;
63499;SDS011;49654;51.142;14.924;2024-02-15T02:37:42;10.05;;;8.30;;
63499;SDS011;49654;51.142;14.924;2024-02-15T02:40:09;10.77;;;8.70;;
63499;SDS011;49654;51.142;14.924;2024-02-15T02:42:48;10.38;;;8.13;;
63499;SDS011;49654;51.142;14.924;2024-02-15T02:45:16;12.52;;;8.95;;
63499;SDS011;49654;51.142;14.924;2024-02-15T02:47:45;11.45;;;9.20;;
63499;SDS011;49654;51.142;14.924;2024-02-15T02:50:13;11.02;;;9.00;;
63499;SDS011;49654;51.142;14.924;2024-02-15T02:52:40;11.52;;;9.02;;
63499;SDS011;49654;51.142;14.924;2024-02-15T02:55:07;13.75;;;9.02;;
63499;SDS011;49654;51.142;14.924;2024-02-15T02:57:34;10.60;;;9.50;;
63499;SDS011;49654;51.142;14.924;2024-02-15T03:00:04;12.23;;;9.90;;
63499;SDS011;49654;51.142;14.924;2024-02-15T03:02:34;18.17;;;9.70;;
63499;SDS011;49654;51.142;14.924;2024-02-15T03:05:02;11.80;;;9.77;;
63499;SDS011;49654;51.142;14.924;2024-02-15T03:07:32;13.25;;;10.38;;
63499;SDS011;49654;51.142;14.924;2024-02-15T03:10:00;13.45;;;10.85;;
63499;SDS011;49654;51.142;14.924;2024-02-15T03:12:28;15.43;;;11.18;;
63499;SDS011;49654;51.142;14.924;2024-02-15T03:14:55;14.07;;;10.52;;
63499;SDS011;49654;51.142;14.924;2024-02-15T03:17:24;13.30;;;10.88;;
63499;SDS011;49654;51.142;14.924;2024-02-15T03:19:51;14.20;;;10.80;;
63499;SDS011;49654;51.142;14.924;2024-02-15T03:22:18;13.55;;;11.18;;
63499;SDS011;49654;51.142;14.924;2024-02-15T03:24:46;16.85;;;11.88;;
63499;SDS011;49654;51.142;14.924;2024-02-15T03:27:13;13.13;;;10.60;;
63499;SDS011;49654;51.142;14.924;2024-02-15T03:29:40;14.93;;;10.98;;
63499;SDS011;49654;51.142;14.924;2024-02-15T03:32:07;13.27;;;10.45;;
63499;SDS011;49654;51.142;14.924;2024-02-15T03:34:36;13.52;;;11.18;;
63499;SDS011;49654;51.142;14.924;2024-02-15T03:37:05;14.20;;;11.05;;
63499;SDS011;49654;51.142;14.924;2024-02-15T03:39:32;15.60;;;11.45;;
63499;SDS011;49654;51.142;14.924;2024-02-15T03:41:59;17.35;;;11.95;;
63499;SDS011;49654;51.142;14.924;2024-02-15T03:44:26;13.55;;;11.43;;
63499;SDS011;49654;51.142;14.924;2024-02-15T03:46:53;15.65;;;11.73;;
63499;SDS011;49654;51.142;14.924;2024-02-15T03:49:20;17.10;;;12.73;;
63499;SDS011;49654;51.142;14.924;2024-02-15T03:51:49;16.02;;;12.27;;
63499;SDS011;49654;51.142;14.924;2024-02-15T03:54:16;17.33;;;12.38;;
63499;SDS011;49654;51.142;14.924;2024-02-15T03:56:47;14.98;;;12.65;;
63499;SDS011;49654;51.142;14.924;2024-02-15T03:59:17;16.35;;;12.73;;
63499;SDS011;49654;51.142;14.924;2024-02-15T04:01:47;16.58;;;12.75;;
63499;SDS011;49654;51.142;14.924;2024-02-15T04:04:14;15.73;;;13.02;;
63499;SDS011;49654;51.142;14.924;2024-02-15T04:06:41;18.25;;;14.27;;
63499;SDS011;49654;51.142;14.924;2024-02-15T04:09:09;14.68;;;13.02;;
63499;SDS011;49654;51.142;14.924;2024-02-15T04:11:37;14.40;;;12.90;;
63499;SDS011;49654;51.142;14.924;2024-02-15T04:14:04;18.98;;;13.40;;
63499;SDS011;49654;51.142;14.924;2024-02-15T04:16:31;15.98;;;13.88;;
63499;SDS011;49654;51.142;14.924;2024-02-15T04:18:59;17.95;;;14.13;;
63499;SDS011;49654;51.142;14.924;2024-02-15T04:21:27;16.65;;;13.43;;
63499;SDS011;49654;51.142;14.924;2024-02-15T04:23:54;18.02;;;14.60;;
63499;SDS011;49654;51.142;14.924;2024-02-15T04:26:22;19.95;;;15.60;;
63499;SDS011;49654;51.142;14.924;2024-02-15T04:28:52;21.13;;;14.55;;
63499;SDS011;49654;51.142;14.924;2024-02-15T04:31:19;17.65;;;15.10;;
63499;SDS011;49654;51.142;14.924;2024-02-15T04:33:52;20.98;;;16.92;;
63499;SDS011;49654;51.142;14.924;2024-02-15T04:36:20;21.88;;;16.85;;
63499;SDS011;49654;51.142;14.924;2024-02-15T04:38:50;20.92;;;15.98;;
63499;SDS011;49654;51.142;14.924;2024-02-15T04:41:18;20.02;;;16.55;;
63499;SDS011;49654;51.142;14.924;2024-02-15T04:43:50;18.63;;;14.80;;
63499;SDS011;49654;51.142;14.924;2024-02-15T04:46:17;21.38;;;16.63;;
63499;SDS011;49654;51.142;14.924;2024-02-15T04:48:46;20.48;;;15.73;;
63499;SDS011;49654;51.142;14.924;2024-02-15T04:51:15;21.33;;;15.70;;
63499;SDS011;49654;51.142;14.924;2024-02-15T04:53:43;21.08;;;15.38;;
63499;SDS011;49654;51.142;14.924;2024-02-15T04:56:12;18.52;;;15.00;;
63499;SDS011;49654;51.142;14.924;2024-02-15T04:58:40;19.13;;;15.18;;
63499;SDS011;49654;51.142;14.924;2024-02-15T05:01:15;18.02;;;14.70;;
63499;SDS011;49654;51.142;14.924;2024-02-15T05:03:43;18.38;;;14.65;;
63499;SDS011;49654;51.142;14.924;2024-02-15T05:06:11;18.17;;;14.73;;
63499;SDS011;49654;51.142;14.924;2024-02-15T05:08:39;17.67;;;14.75;;
63499;SDS011;49654;51.142;14.924;2024-02-15T05:11:08;20.92;;;15.63;;
63499;SDS011;49654;51.142;14.924;2024-02-15T05:13:40;17.42;;;15.13;;
63499;SDS011;49654;51.142;14.924;2024-02-15T05:16:07;19.90;;;14.68;;
63499;SDS011;49654;51.142;14.924;2024-02-15T05:18:36;19.92;;;16.05;;
63499;SDS011;49654;51.142;14.924;2024-02-15T05:21:05;19.90;;;15.60;;
63499;SDS011;49654;51.142;14.924;2024-02-15T05:23:34;19.38;;;14.80;;
63499;SDS011;49654;51.142;14.924;2024-02-15T05:26:02;17.35;;;14.70;;
63499;SDS011;49654;51.142;14.924;2024-02-15T05:28:29;16.48;;;14.32;;
63499;SDS011;49654;51.142;14.924;2024-02-15T05:31:10;18.80;;;14.90;;
63499;SDS011;49654;51.142;14.924;2024-02-15T05:33:39;17.38;;;14.55;;
63499;SDS011;49654;51.142;14.924;2024-02-15T05:36:08;19.60;;;15.70;;
63499;SDS011;49654;51.142;14.924;2024-02-15T05:38:36;19.40;;;16.38;;
63499;SDS011;49654;51.142;14.924;2024-02-15T05:41:03;22.15;;;15.85;;
63499;SDS011;49654;51.142;14.924;2024-02-15T05:43:30;21.02;;;16.70;;
63499;SDS011;49654;51.142;14.924;2024-02-15T05:45:57;21.25;;;16.95;;
63499;SDS011;49654;51.142;14.924;2024-02-15T05:48:26;19.30;;;16.48;;
63499;SDS011;49654;51.142;14.924;2024-02-15T05:50:55;19.48;;;16.90;;
63499;SDS011;49654;51.142;14.924;2024-02-15T05:53:23;19.98;;;15.55;;
63499;SDS011;49654;51.142;14.924;2024-02-15T05:55:50;21.35;;;17.63;;
63499;SDS011;49654;51.142;14.924;2024-02-15T05:58:17;17.92;;;15.60;;
63499;SDS011;49654;51.142;14.924;2024-02-15T06:00:44;21.33;;;17.95;;
63499;SDS011;49654;51.142;14.924;2024-02-15T06:03:15;18.90;;;15.35;;
63499;SDS011;49654;51.142;14.924;2024-02-15T06:05:43;16.50;;;13.80;;
63499;SDS011;49654;51.142;14.924;2024-02-15T06:08:11;21.08;;;16.50;;
63499;SDS011;49654;51.142;14.924;2024-02-15T06:10:38;29.00;;;22.88;;
63499;SDS011;49654;51.142;14.924;2024-02-15T06:13:06;20.00;;;15.40;;
63499;SDS011;49654;51.142;14.924;2024-02-15T06:15:34;20.70;;;15.82;;
63499;SDS011;49654;51.142;14.924;2024-02-15T06:18:01;19.73;;;15.43;;
63499;SDS011;49654;51.142;14.924;2024-02-15T06:20:34;20.60;;;15.45;;
63499;SDS011;49654;51.142;14.924;2024-02-15T06:23:01;18.35;;;15.27;;
63499;SDS011;49654;51.142;14.924;2024-02-15T06:25:32;18.90;;;15.45;;
63499;SDS011;49654;51.142;14.924;2024-02-15T06:27:59;18.10;;;14.18;;
63499;SDS011;49654;51.142;14.924;2024-02-15T06:30:27;19.42;;;15.77;;
63499;SDS011;49654;51.142;14.924;2024-02-15T06:33:12;17.08;;;15.27;;
63499;SDS011;49654;51.142;14.924;2024-02-15T06:35:57;17.95;;;15.38;;
63499;SDS011;49654;51.142;14.924;2024-02-15T06:38:41;17.75;;;15.55;;
63499;SDS011;49654;51.142;14.924;2024-02-15T06:41:27;19.40;;;16.70;;
63499;SDS011;49654;51.142;14.924;2024-02-15T06:43:54;20.67;;;16.25;;
63499;SDS011;49654;51.142;14.924;2024-02-15T06:46:21;21.20;;;17.35;;
63499;SDS011;49654;51.142;14.924;2024-02-15T06:48:49;20.17;;;16.88;;
63499;SDS011;49654;51.142;14.924;2024-02-15T06:51:15;22.13;;;17.73;;
63499;SDS011;49654;51.142;14.924;2024-02-15T06:53:42;22.35;;;16.77;;
63499;SDS011;49654;51.142;14.924;2024-02-15T06:56:09;22.98;;;17.98;;
63499;SDS011;49654;51.142;14.924;2024-02-15T06:58:38;22.77;;;17.35;;
63499;SDS011;49654;51.142;14.924;2024-02-15T07:01:07;21.30;;;17.40;;
63499;SDS011;49654;51.142;14.924;2024-02-15T07:03:34;21.70;;;17.48;;
63499;SDS011;49654;51.142;14.924;2024-02-15T07:06:01;22.75;;;18.23;;
63499;SDS011;49654;51.142;14.924;2024-02-15T07:08:28;20.98;;;17.65;;
63499;SDS011;49654;51.142;14.924;2024-02-15T07:10:56;22.70;;;17.60;;
63499;SDS011;49654;51.142;14.924;2024-02-15T07:13:23;21.05;;;17.58;;
63499;SDS011;49654;51.142;14.924;2024-02-15T07:15:53;23.00;;;19.70;;
63499;SDS011;49654;51.142;14.924;2024-02-15T07:18:20;22.23;;;18.13;;
63499;SDS011;49654;51.142;14.924;2024-02-15T07:20:47;21.73;;;17.98;;
63499;SDS011;49654;51.142;14.924;2024-02-15T07:23:14;23.58;;;18.42;;
63499;SDS011;49654;51.142;14.924;2024-02-15T07:25:41;22.48;;;18.67;;
63499;SDS011;49654;51.142;14.924;2024-02-15T07:28:08;22.52;;;18.83;;
63499;SDS011;49654;51.142;14.924;2024-02-15T07:30:35;23.95;;;18.98;;
63499;SDS011;49654;51.142;14.924;2024-02-15T07:33:04;23.83;;;18.98;;
63499;SDS011;49654;51.142;14.924;2024-02-15T07:35:32;24.30;;;19.10;;
63499;SDS011;49654;51.142;14.924;2024-02-15T07:38:00;25.40;;;19.60;;
63499;SDS011;49654;51.142;14.924;2024-02-15T07:40:28;22.85;;;19.00;;
63499;SDS011;49654;51.142;14.924;2024-02-15T07:42:56;23.05;;;18.85;;
63499;SDS011;49654;51.142;14.924;2024-02-15T07:45:24;25.58;;;20.48;;
63499;SDS011;49654;51.142;14.924;2024-02-15T07:47:50;26.80;;;20.60;;
63499;SDS011;49654;51.142;14.924;2024-02-15T07:50:19;26.35;;;20.73;;
63499;SDS011;49654;51.142;14.924;2024-02-15T07:52:48;27.15;;;20.40;;
63499;SDS011;49654;51.142;14.924;2024-02-15T07:55:16;25.27;;;19.92;;
63499;SDS011;49654;51.142;14.924;2024-02-15T07:57:43;25.98;;;20.20;;
63499;SDS011;49654;51.142;14.924;2024-02-15T08:00:12;23.63;;;19.90;;
63499;SDS011;49654;51.142;14.924;2024-02-15T08:02:42;23.80;;;19.50;;
63499;SDS011;49654;51.142;14.924;2024-02-15T08:05:09;22.13;;;18.23;;
63499;SDS011;49654;51.142;14.924;2024-02-15T08:07:40;23.23;;;18.10;;
63499;SDS011;49654;51.142;14.924;2024-02-15T08:10:08;21.55;;;18.35;;
63499;SDS011;49654;51.142;14.924;2024-02-15T08:12:39;21.77;;;18.58;;
63499;SDS011;49654;51.142;14.924;2024-02-15T08:15:07;22.30;;;18.35;;
63499;SDS011;49654;51.142;14.924;2024-02-15T08:17:38;20.42;;;17.23;;
63499;SDS011;49654;51.142;14.924;2024-02-15T08:20:07;21.17;;;17.38;;
63499;SDS011;49654;51.142;14.924;2024-02-15T08:22:34;21.65;;;17.63;;
63499;SDS011;49654;51.142;14.924;2024-02-15T08:25:07;20.50;;;16.75;;
63499;SDS011;49654;51.142;14.924;2024-02-15T08:27:36;21.33;;;17.05;;
63499;SDS011;49654;51.142;14.924;2024-02-15T08:30:08;19.95;;;16.10;;
63499;SDS011;49654;51.142;14.924;2024-02-15T08:32:36;21.67;;;17.38;;
63499;SDS011;49654;51.142;14.924;2024-02-15T08:35:05;19.08;;;16.60;;
63499;SDS011;49654;51.142;14.924;2024-02-15T08:37:33;21.13;;;16.77;;
63499;SDS011;49654;51.142;14.924;2024-02-15T08:40:01;21.88;;;17.63;;
63499;SDS011;49654;51.142;14.924;2024-02-15T08:42:29;20.67;;;17.10;;
63499;SDS011;49654;51.142;14.924;2024-02-15T08:44:56;19.92;;;16.60;;
63499;SDS011;49654;51.142;14.924;2024-02-15T08:47:24;20.88;;;16.35;;
63499;SDS011;49654;51.142;14.924;2024-02-15T08:49:52;20.13;;;16.75;;
63499;SDS011;49654;51.142;14.924;2024-02-15T08:52:19;21.45;;;16.58;;
63499;SDS011;49654;51.142;14.924;2024-02-15T08:54:46;20.63;;;16.15;;
63499;SDS011;49654;51.142;14.924;2024-02-15T08:57:13;19.30;;;16.38;;
63499;SDS011;49654;51.142;14.924;2024-02-15T08:59:41;17.88;;;15.60;;
63499;SDS011;49654;51.142;14.924;2024-02-15T09:02:08;17.10;;;14.55;;
63499;SDS011;49654;51.142;14.924;2024-02-15T09:04:35;21.95;;;16.25;;
63499;SDS011;49654;51.142;14.924;2024-02-15T09:07:02;18.50;;;15.13;;
63499;SDS011;49654;51.142;14.924;2024-02-15T09:09:30;18.00;;;15.40;;
63499;SDS011;49654;51.142;14.924;2024-02-15T09:12:00;17.10;;;14.48;;
63499;SDS011;49654;51.142;14.924;2024-02-15T09:14:27;17.48;;;14.07;;
63499;SDS011;49654;51.142;14.924;2024-02-15T09:16:56;19.08;;;15.23;;
63499;SDS011;49654;51.142;14.924;2024-02-15T09:19:23;18.23;;;14.75;;
63499;SDS011;49654;51.142;14.924;2024-02-15T09:21:50;15.95;;;13.88;;
63499;SDS011;49654;51.142;14.924;2024-02-15T09:24:16;17.92;;;14.32;;
63499;SDS011;49654;51.142;14.924;2024-02-15T09:26:43;17.70;;;14.02;;
63499;SDS011;49654;51.142;14.924;2024-02-15T09:29:10;18.73;;;14.30;;
63499;SDS011;49654;51.142;14.924;2024-02-15T09:31:38;19.40;;;15.10;;
63499;SDS011;49654;51.142;14.924;2024-02-15T09:34:07;17.90;;;15.07;;
63499;SDS011;49654;51.142;14.924;2024-02-15T09:36:34;17.98;;;14.90;;
63499;SDS011;49654;51.142;14.924;2024-02-15T09:39:03;20.40;;;14.73;;
63499;SDS011;49654;51.142;14.924;2024-02-15T09:41:30;19.17;;;13.93;;
63499;SDS011;49654;51.142;14.924;2024-02-15T09:43:57;17.38;;;14.75;;
63499;SDS011;49654;51.142;14.924;2024-02-15T09:46:24;18.27;;;14.18;;
63499;SDS011;49654;51.142;14.924;2024-02-15T09:48:51;17.75;;;14.20;;
63499;SDS011;49654;51.142;14.924;2024-02-15T09:51:25;17.25;;;14.30;;
63499;SDS011;49654;51.142;14.924;2024-02-15T09:53:53;16.52;;;13.75;;
63499;SDS011;49654;51.142;14.924;2024-02-15T09:56:24;19.33;;;13.68;;
63499;SDS011;49654;51.142;14.924;2024-02-15T09:58:54;17.92;;;13.68;;
63499;SDS011;49654;51.142;14.924;2024-02-15T10:01:22;15.55;;;12.40;;
63499;SDS011;49654;51.142;14.924;2024-02-15T10:03:49;14.98;;;12.75;;
63499;SDS011;49654;51.142;14.924;2024-02-15T10:06:17;21.73;;;14.02;;
63499;SDS011;49654;51.142;14.924;2024-02-15T10:08:46;16.60;;;13.40;;
63499;SDS011;49654;51.142;14.924;2024-02-15T10:11:13;17.83;;;13.15;;
63499;SDS011;49654;51.142;14.924;2024-02-15T10:13:41;16.63;;;13.80;;
63499;SDS011;49654;51.142;14.924;2024-02-15T10:16:13;15.45;;;12.63;;
63499;SDS011;49654;51.142;14.924;2024-02-15T10:18:41;14.60;;;12.48;;
63499;SDS011;49654;51.142;14.924;2024-02-15T10:21:08;16.10;;;13.57;;
63499;SDS011;49654;51.142;14.924;2024-02-15T10:23:36;14.85;;;12.85;;
63499;SDS011;49654;51.142;14.924;2024-02-15T10:29:07;17.02;;;13.50;;
63499;SDS011;49654;51.142;14.924;2024-02-15T10:31:36;17.55;;;14.98;;
63499;SDS011;49654;51.142;14.924;2024-02-15T10:34:04;16.73;;;13.95;;
63499;SDS011;49654;51.142;14.924;2024-02-15T10:36:31;19.55;;;14.77;;
63499;SDS011;49654;51.142;14.924;2024-02-15T10:39:12;15.82;;;14.13;;
63499;SDS011;49654;51.142;14.924;2024-02-15T10:41:46;16.27;;;13.65;;
63499;SDS011;49654;51.142;14.924;2024-02-15T10:44:16;17.65;;;13.85;;
63499;SDS011;49654;51.142;14.924;2024-02-15T10:46:45;16.92;;;12.68;;
63499;SDS011;49654;51.142;14.924;2024-02-15T10:49:17;15.38;;;13.20;;
63499;SDS011;49654;51.142;14.924;2024-02-15T10:51:48;15.48;;;13.27;;
63499;SDS011;49654;51.142;14.924;2024-02-15T10:54:19;16.35;;;13.38;;
63499;SDS011;49654;51.142;14.924;2024-02-15T10:56:57;16.85;;;13.60;;
63499;SDS011;49654;51.142;14.924;2024-02-15T10:59:34;15.23;;;12.82;;
63499;SDS011;49654;51.142;14.924;2024-02-15T11:02:10;15.57;;;12.70;;
63499;SDS011;49654;51.142;14.924;2024-02-15T11:04:51;15.82;;;13.40;;
63499;SDS011;49654;51.142;14.924;2024-02-15T11:07:23;17.08;;;12.93;;
63499;SDS011;49654;51.142;14.924;2024-02-15T11:09:51;18.52;;;13.38;;
63499;SDS011;49654;51.142;14.924;2024-02-15T11:12:19;15.95;;;12.82;;
63499;SDS011;49654;51.142;14.924;2024-02-15T11:14:48;14.93;;;12.52;;
63499;SDS011;49654;51.142;14.924;2024-02-15T11:23:24;13.90;;;11.77;;
63499;SDS011;49654;51.142;14.924;2024-02-15T11:25:53;14.50;;;12.55;;
63499;SDS011;49654;51.142;14.924;2024-02-15T11:28:35;13.13;;;11.38;;
63499;SDS011;49654;51.142;14.924;2024-02-15T11:31:07;16.27;;;12.55;;
63499;SDS011;49654;51.142;14.924;2024-02-15T11:33:36;13.27;;;11.68;;
63499;SDS011;49654;51.142;14.924;2024-02-15T11:36:04;15.35;;;13.27;;
63499;SDS011;49654;51.142;14.924;2024-02-15T11:38:32;14.52;;;12.20;;
63499;SDS011;49654;51.142;14.924;2024-02-15T11:41:00;14.55;;;12.30;;
63499;SDS011;49654;51.142;14.924;2024-02-15T11:43:50;15.68;;;12.63;;
63499;SDS011;49654;51.142;14.924;2024-02-15T11:46:23;13.50;;;11.45;;
63499;SDS011;49654;51.142;14.924;2024-02-15T11:48:56;13.13;;;11.23;;
63499;SDS011;49654;51.142;14.924;2024-02-15T11:51:25;14.25;;;11.98;;
63499;SDS011;49654;51.142;14.924;2024-02-15T11:54:01;12.50;;;11.05;;
63499;SDS011;49654;51.142;14.924;2024-02-15T11:56:48;13.63;;;11.52;;
63499;SDS011;49654;51.142;14.924;2024-02-15T11:59:17;12.52;;;10.82;;
63499;SDS011;49654;51.142;14.924;2024-02-15T12:01:56;13.20;;;11.35;;
63499;SDS011;49654;51.142;14.924;2024-02-15T12:04:41;13.75;;;11.40;;
63499;SDS011;49654;51.142;14.924;2024-02-15T12:07:26;16.42;;;11.57;;
63499;SDS011;49654;51.142;14.924;2024-02-15T12:10:15;12.65;;;10.90;;
63499;SDS011;49654;51.142;14.924;2024-02-15T12:13:00;14.98;;;11.10;;
63499;SDS011;49654;51.142;14.924;2024-02-15T12:15:55;15.50;;;11.40;;
63499;SDS011;49654;51.142;14.924;2024-02-15T12:18:42;11.82;;;9.98;;
63499;SDS011;49654;51.142;14.924;2024-02-15T12:21:10;12.88;;;10.48;;
63499;SDS011;49654;51.142;14.924;2024-02-15T12:23:39;11.63;;;10.15;;
63499;SDS011;49654;51.142;14.924;2024-02-15T12:26:07;10.45;;;9.38;;
63499;SDS011;49654;51.142;14.924;2024-02-15T12:28:34;10.70;;;9.10;;
63499;SDS011;49654;51.142;14.924;2024-02-15T12:31:02;10.43;;;9.30;;
63499;SDS011;49654;51.142;14.924;2024-02-15T12:33:32;11.35;;;9.50;;
63499;SDS011;49654;51.142;14.924;2024-02-15T12:36:07;13.20;;;9.63;;
63499;SDS011;49654;51.142;14.924;2024-02-15T12:38:35;10.80;;;9.50;;
63499;SDS011;49654;51.142;14.924;2024-02-15T12:41:03;10.98;;;8.85;;
63499;SDS011;49654;51.142;14.924;2024-02-15T12:43:31;11.07;;;9.85;;
63499;SDS011;49654;51.142;14.924;2024-02-15T12:45:58;11.93;;;9.93;;
63499;SDS011;49654;51.142;14.924;2024-02-15T12:48:25;11.13;;;9.57;;
63499;SDS011;49654;51.142;14.924;2024-02-15T12:50:52;12.25;;;9.35;;
63499;SDS011;49654;51.142;14.924;2024-02-15T12:53:22;13.50;;;10.30;;
63499;SDS011;49654;51.142;14.924;2024-02-15T12:55:52;12.18;;;9.77;;
63499;SDS011;49654;51.142;14.924;2024-02-15T12:58:21;11.68;;;9.75;;
63499;SDS011;49654;51.142;14.924;2024-02-15T13:00:50;10.82;;;9.70;;
63499;SDS011;49654;51.142;14.924;2024-02-15T13:03:21;11.00;;;9.88;;
63499;SDS011;49654;51.142;14.924;2024-02-15T13:05:48;12.40;;;10.90;;
63499;SDS011;49654;51.142;14.924;2024-02-15T13:08:15;14.25;;;11.00;;
63499;SDS011;49654;51.142;14.924;2024-02-15T13:10:45;13.02;;;11.60;;
63499;SDS011;49654;51.142;14.924;2024-02-15T13:13:12;13.50;;;12.02;;
63499;SDS011;49654;51.142;14.924;2024-02-15T13:15:41;14.10;;;12.20;;
63499;SDS011;49654;51.142;14.924;2024-02-15T13:18:09;18.45;;;12.45;;
63499;SDS011;49654;51.142;14.924;2024-02-15T13:20:36;13.80;;;11.35;;
63499;SDS011;49654;51.142;14.924;2024-02-15T13:23:04;13.57;;;11.32;;
63499;SDS011;49654;51.142;14.924;2024-02-15T13:25:34;12.90;;;11.50;;
63499;SDS011;49654;51.142;14.924;2024-02-15T13:28:04;14.02;;;10.40;;
63499;SDS011;49654;51.142;14.924;2024-02-15T13:30:32;12.40;;;10.32;;
63499;SDS011;49654;51.142;14.924;2024-02-15T13:32:59;15.18;;;11.00;;
63499;SDS011;49654;51.142;14.924;2024-02-15T13:35:27;12.07;;;10.32;;
63499;SDS011;49654;51.142;14.924;2024-02-15T13:37:55;13.48;;;10.75;;
63499;SDS011;49654;51.142;14.924;2024-02-15T13:40:23;12.45;;;10.30;;
63499;SDS011;49654;51.142;14.924;2024-02-15T13:42:54;13.57;;;10.50;;
63499;SDS011;49654;51.142;14.924;2024-02-15T13:45:27;11.60;;;10.35;;
63499;SDS011;49654;51.142;14.924;2024-02-15T13:47:58;13.15;;;11.18;;
63499;SDS011;49654;51.142;14.924;2024-02-15T13:50:28;13.63;;;11.18;;
63499;SDS011;49654;51.142;14.924;2024-02-15T13:52:56;14.18;;;11.52;;
63499;SDS011;49654;51.142;14.924;2024-02-15T13:55:23;13.68;;;11.25;;
63499;SDS011;49654;51.142;14.924;2024-02-15T13:57:51;12.23;;;10.45;;
63499;SDS011;49654;51.142;14.924;2024-02-15T14:00:21;12.32;;;10.90;;
63499;SDS011;49654;51.142;14.924;2024-02-15T14:02:49;12.18;;;10.80;;
63499;SDS011;49654;51.142;14.924;2024-02-15T14:05:18;12.63;;;10.93;;
63499;SDS011;49654;51.142;14.924;2024-02-15T14:07:49;14.75;;;11.82;;
63499;SDS011;49654;51.142;14.924;2024-02-15T14:10:19;15.50;;;12.50;;
63499;SDS011;49654;51.142;14.924;2024-02-15T14:12:47;16.48;;;12.93;;
63499;SDS011;49654;51.142;14.924;2024-02-15T14:15:14;16.45;;;12.88;;
63499;SDS011;49654;51.142;14.924;2024-02-15T14:17:42;17.33;;;13.85;;
63499;SDS011;49654;51.142;14.924;2024-02-15T14:20:12;15.88;;;12.35;;
63499;SDS011;49654;51.142;14.924;2024-02-15T14:22:40;17.17;;;13.20;;
63499;SDS011;49654;51.142;14.924;2024-02-15T14:25:07;17.63;;;14.10;;
63499;SDS011;49654;51.142;14.924;2024-02-15T14:27:34;17.05;;;14.60;;
63499;SDS011;49654;51.142;14.924;2024-02-15T14:30:02;16.95;;;14.48;;
63499;SDS011;49654;51.142;14.924;2024-02-15T14:32:47;19.13;;;14.88;;
63499;SDS011;49654;51.142;14.924;2024-02-15T14:35:31;18.02;;;15.35;;